Time;durP1;ratioP1;P1;durP2;ratioP2;P2;SDS_P1;SDS_P2;PMS_P1;PMS_P2;Temp;Humidity;BMP_temperature;BMP_pressure;BME280_temperature;BME280_humidity;BME280_pressure;Samples;Min_cycle;Max_cycle;Signal;HPM_P1;HPM_P2
2021/07/09 00:01:25;;;;;;;14.55;8.50;;;;;;;19.71;84.66;95604.50;5107888;27;20494;-67
2021/07/09 00:03:52;;;;;;;8.93;8.02;;;;;;;19.75;84.54;95600.28;5106404;28;20036;-67
2021/07/09 00:06:21;;;;;;;11.27;8.85;;;;;;;19.74;83.93;95593.44;5105191;28;20129;-67
2021/07/09 00:08:48;;;;;;;20.17;8.82;;;;;;;19.86;83.54;95607.13;5107745;27;20521;-66
2021/07/09 00:11:16;;;;;;;13.18;7.80;;;;;;;19.84;84.00;95609.25;5107966;27;20044;-67
2021/07/09 00:13:44;;;;;;;11.98;8.00;;;;;;;19.88;83.73;95609.50;5107804;28;20138;-67
2021/07/09 00:16:16;;;;;;;14.07;8.23;;;;;;;19.87;83.22;95598.13;5107615;28;20071;-67
2021/07/09 00:18:43;;;;;;;9.05;7.30;;;;;;;19.86;82.80;95591.25;5088314;28;20042;-67
2021/07/09 00:21:11;;;;;;;12.20;7.55;;;;;;;19.89;83.07;95596.00;5107706;27;20036;-67
2021/07/09 00:23:38;;;;;;;11.02;7.32;;;;;;;19.82;82.95;95584.94;5107637;28;20097;-68
2021/07/09 00:26:05;;;;;;;10.75;6.75;;;;;;;19.88;83.33;95604.22;5107571;28;20542;-68
2021/07/09 00:28:32;;;;;;;12.32;6.82;;;;;;;19.81;83.96;95599.22;5088963;28;20528;-67
2021/07/09 00:30:59;;;;;;;8.88;6.22;;;;;;;19.72;84.42;95595.53;5107000;28;20038;-67
2021/07/09 00:33:25;;;;;;;7.00;6.30;;;;;;;19.75;83.62;95590.50;5107617;27;20043;-67
2021/07/09 00:35:52;;;;;;;9.18;6.22;;;;;;;19.73;84.25;95592.63;5107363;28;20032;-66
2021/07/09 00:38:19;;;;;;;8.60;6.88;;;;;;;19.59;85.00;95595.03;5106030;28;20163;-67
2021/07/09 00:40:46;;;;;;;11.10;6.45;;;;;;;19.64;84.72;95587.09;5106040;28;20043;-67
2021/07/09 00:43:13;;;;;;;7.78;6.22;;;;;;;19.71;84.28;95586.00;5105996;28;20093;-67
2021/07/09 00:45:40;;;;;;;11.68;6.75;;;;;;;19.67;84.56;95578.63;5107166;28;20057;-66
2021/07/09 00:48:07;;;;;;;14.82;6.18;;;;;;;19.64;84.42;95573.91;5106880;28;20042;-68
2021/07/09 00:50:34;;;;;;;9.45;6.40;;;;;;;19.66;84.97;95570.97;5107271;28;20140;-67
2021/07/09 00:53:01;;;;;;;6.28;5.72;;;;;;;19.61;85.38;95574.44;5106423;27;20492;-67
2021/07/09 00:55:28;;;;;;;10.32;6.70;;;;;;;19.57;85.82;95567.28;5108435;27;20051;-67
2021/07/09 00:57:55;;;;;;;6.15;5.53;;;;;;;19.58;86.01;95564.38;5106757;28;20039;-67
2021/07/09 01:00:23;;;;;;;8.20;7.03;;;;;;;19.56;85.92;95558.59;5104491;28;20463;-67
2021/07/09 01:02:50;;;;;;;9.70;6.40;;;;;;;19.56;86.23;95555.94;5106266;27;20068;-67
2021/07/09 01:05:18;;;;;;;8.07;6.05;;;;;;;19.57;86.63;95572.56;5088662;27;20047;-67
2021/07/09 01:07:45;;;;;;;7.13;6.13;;;;;;;19.58;86.09;95569.66;5105269;28;20046;-67
2021/07/09 01:10:15;;;;;;;11.10;7.13;;;;;;;19.58;86.64;95564.38;5106491;28;20040;-67
2021/07/09 01:12:43;;;;;;;7.70;6.07;;;;;;;19.41;88.08;95559.44;5108130;27;20039;-68
2021/07/09 01:15:12;;;;;;;9.98;6.45;;;;;;;19.35;88.53;95549.16;5106042;28;20096;-67
2021/07/09 01:17:40;;;;;;;8.00;7.07;;;;;;;19.31;88.98;95559.47;5105031;28;20044;-67
2021/07/09 01:20:10;;;;;;;7.32;6.63;;;;;;;19.23;89.21;95547.59;5105036;28;20035;-68
2021/07/09 01:22:45;;;;;;;7.50;6.70;;;;;;;19.16;89.67;95547.09;5106352;28;20513;-68
2021/07/09 01:25:24;;;;;;;10.00;6.80;;;;;;;19.14;90.15;95558.97;5105518;28;20051;-66
2021/07/09 01:27:58;;;;;;;8.68;6.10;;;;;;;19.09;91.07;95557.13;5105652;27;20557;-67
2021/07/09 01:30:25;;;;;;;7.47;6.57;;;;;;;19.12;90.54;95556.56;5107017;27;20035;-67
2021/07/09 01:32:53;;;;;;;10.18;6.68;;;;;;;19.27;89.67;95558.41;5106139;28;20458;-67
2021/07/09 01:35:22;;;;;;;7.28;6.55;;;;;;;19.32;89.28;95562.88;5087598;28;20051;-67
2021/07/09 01:38:01;;;;;;;7.32;6.63;;;;;;;19.41;88.76;95559.44;5106027;28;20043;-66
2021/07/09 01:40:30;;;;;;;12.27;6.82;;;;;;;19.46;88.35;95558.63;5106135;28;20035;-67
2021/07/09 01:42:57;;;;;;;9.02;6.90;;;;;;;19.39;88.83;95560.75;5105323;28;20051;-67
2021/07/09 01:45:24;;;;;;;8.32;7.03;;;;;;;19.33;89.06;95561.84;5109120;28;20039;-67
2021/07/09 01:47:53;;;;;;;7.95;6.75;;;;;;;19.37;89.03;95568.16;5106045;28;20436;-66
2021/07/09 01:50:21;;;;;;;9.48;6.68;;;;;;;19.31;89.45;95558.66;5105710;28;20049;-66
2021/07/09 01:52:48;;;;;;;6.68;6.07;;;;;;;19.26;89.59;95557.59;5104458;28;20054;-67
2021/07/09 01:55:16;;;;;;;9.25;6.25;;;;;;;19.27;89.38;95559.19;5105776;28;20059;-67
2021/07/09 01:57:44;;;;;;;10.32;7.70;;;;;;;19.27;89.50;95559.19;5105761;28;20047;-67
2021/07/09 02:00:18;;;;;;;7.88;7.07;;;;;;;19.23;89.87;95568.72;5103721;28;20051;-67
2021/07/09 02:02:45;;;;;;;11.18;6.75;;;;;;;19.28;89.58;95570.53;5104879;28;20454;-67
2021/07/09 02:05:16;;;;;;;7.65;6.60;;;;;;;19.25;89.91;95571.88;5105617;28;20044;-66
2021/07/09 02:07:45;;;;;;;9.95;6.63;;;;;;;19.28;89.31;95575.81;5105999;28;20451;-67
2021/07/09 02:10:16;;;;;;;10.80;7.05;;;;;;;19.36;88.41;95571.88;5104669;28;20507;-66
2021/07/09 02:12:43;;;;;;;9.00;7.10;;;;;;;19.32;88.24;95565.53;5091010;28;20047;-67
2021/07/09 02:15:14;;;;;;;10.65;7.57;;;;;;;19.40;88.48;95572.91;5111460;27;20128;-67
2021/07/09 02:17:43;;;;;;;10.05;6.75;;;;;;;19.43;88.13;95573.16;5110006;27;20051;-67
2021/07/09 02:20:15;;;;;;;14.57;7.10;;;;;;;19.45;87.90;95570.25;5108857;27;20047;-67
2021/07/09 02:22:42;;;;;;;12.45;7.28;;;;;;;19.47;87.81;95562.84;5109923;27;20754;-67
2021/07/09 02:25:09;;;;;;;9.13;6.63;;;;;;;19.48;87.86;95559.13;5108706;27;20052;-67
2021/07/09 02:27:40;;;;;;;9.07;6.65;;;;;;;19.50;87.61;95562.31;5108571;28;20066;-67
2021/07/09 02:30:11;;;;;;;9.65;6.85;;;;;;;19.48;88.45;95567.06;5110680;27;20036;-67
2021/07/09 02:32:39;;;;;;;8.75;6.90;;;;;;;19.40;88.97;95562.34;5108262;28;20104;-67
2021/07/09 02:35:08;;;;;;;10.10;6.65;;;;;;;19.44;89.22;95568.66;5108675;27;20192;-67
2021/07/09 02:37:35;;;;;;;8.13;6.97;;;;;;;19.44;88.50;95568.66;5109666;27;20408;-67
2021/07/09 02:40:05;;;;;;;11.10;7.40;;;;;;;19.53;88.41;95561.75;5108681;28;20039;-67
2021/07/09 02:42:32;;;;;;;8.63;6.70;;;;;;;19.64;87.55;95562.50;5108884;28;20039;-67
2021/07/09 02:44:59;;;;;;;10.90;7.05;;;;;;;19.71;87.54;95564.88;5107956;28;20050;-67
2021/07/09 02:47:26;;;;;;;11.00;6.95;;;;;;;19.71;87.51;95562.22;5108027;28;20040;-67
2021/07/09 02:49:53;;;;;;;14.65;7.55;;;;;;;19.75;87.55;95565.94;5090477;28;20043;-67
2021/07/09 02:52:20;;;;;;;10.43;6.68;;;;;;;19.74;87.18;95572.31;5109048;28;20549;-67
2021/07/09 02:54:46;;;;;;;10.23;7.97;;;;;;;19.65;86.99;95570.19;5109159;28;20052;-68
2021/07/09 02:57:13;;;;;;;12.27;7.03;;;;;;;19.68;87.07;95560.94;5108955;27;20055;-67
2021/07/09 02:59:40;;;;;;;13.10;6.88;;;;;;;19.67;86.95;95568.06;5106399;27;20566;-66
2021/07/09 03:02:07;;;;;;;9.40;7.05;;;;;;;19.64;87.43;95571.25;5108691;27;20469;-66
2021/07/09 03:04:34;;;;;;;7.80;6.68;;;;;;;19.61;87.54;95574.44;5107954;27;20040;-67
2021/07/09 03:07:00;;;;;;;11.68;7.53;;;;;;;19.43;88.37;95556.53;5090472;27;20054;-67
2021/07/09 03:09:27;;;;;;;11.48;7.40;;;;;;;19.53;88.17;95569.69;5108296;27;20428;-67
2021/07/09 03:11:54;;;;;;;11.25;7.45;;;;;;;19.41;88.85;95558.63;5091897;27;20027;-67
2021/07/09 03:14:21;;;;;;;13.32;8.60;;;;;;;19.44;88.80;95574.72;5090492;28;20036;-67
2021/07/09 03:16:47;;;;;;;9.80;7.38;;;;;;;19.44;89.18;95571.31;5109525;27;20051;-67
2021/07/09 03:19:16;;;;;;;8.02;6.82;;;;;;;19.36;89.82;95566.59;5108886;27;20050;-67
2021/07/09 03:21:42;;;;;;;11.95;7.68;;;;;;;19.18;90.90;95565.31;5088898;28;20114;-67
2021/07/09 03:24:09;;;;;;;11.38;8.45;;;;;;;19.06;92.08;95563.72;5107745;27;20043;-67
2021/07/09 03:26:36;;;;;;;9.18;7.43;;;;;;;19.06;91.93;95573.50;5108231;27;20477;-67
2021/07/09 03:29:03;;;;;;;9.55;8.38;;;;;;;19.06;92.22;95560.28;5089555;27;20054;-67
2021/07/09 03:31:32;;;;;;;10.35;8.32;;;;;;;19.09;92.11;95562.41;5091592;28;20047;-67
2021/07/09 03:34:00;;;;;;;10.18;7.82;;;;;;;18.99;93.17;95573.75;5108651;27;20109;-67
2021/07/09 03:36:27;;;;;;;14.10;7.35;;;;;;;18.81;94.48;95559.25;5108296;27;20042;-66
2021/07/09 03:38:56;;;;;;;10.32;7.75;;;;;;;18.88;94.22;95570.34;5106830;28;20066;-66
2021/07/09 03:41:24;;;;;;;9.07;7.40;;;;;;;18.87;94.61;95570.59;5108467;28;20031;-67
2021/07/09 03:43:51;;;;;;;18.60;7.72;;;;;;;18.84;94.52;95561.38;5107871;27;20039;-67
2021/07/09 03:46:19;;;;;;;10.55;7.50;;;;;;;18.80;95.50;95568.22;5107861;28;20499;-67
2021/07/09 03:48:46;;;;;;;14.02;7.75;;;;;;;18.73;96.02;95559.78;5108175;28;20038;-67
2021/07/09 03:51:13;;;;;;;10.38;7.07;;;;;;;18.85;95.65;95568.25;5089348;28;20048;-67
2021/07/09 03:53:40;;;;;;;9.38;7.32;;;;;;;18.86;95.95;95559.25;5107062;27;20122;-67
2021/07/09 03:56:07;;;;;;;10.70;7.72;;;;;;;18.93;95.99;95563.50;5107975;28;21593;-67
2021/07/09 03:58:34;;;;;;;9.60;8.25;;;;;;;19.00;95.39;95570.06;5106842;27;20515;-67
2021/07/09 04:01:01;;;;;;;12.13;7.28;;;;;;;19.04;94.81;95559.78;5104620;28;20414;-67
2021/07/09 04:03:28;;;;;;;7.78;6.97;;;;;;;19.13;94.29;95557.38;5089052;28;20071;-67
2021/07/09 04:05:55;;;;;;;10.10;7.93;;;;;;;19.21;94.45;95560.28;5109273;27;20047;-67
2021/07/09 04:08:21;;;;;;;9.35;7.15;;;;;;;19.22;94.35;95561.84;5107596;27;20039;-67
2021/07/09 04:10:48;;;;;;;7.70;7.00;;;;;;;19.26;94.58;95562.09;5106956;28;20047;-67
2021/07/09 04:13:15;;;;;;;7.95;7.15;;;;;;;19.29;94.48;95562.34;5108037;28;20058;-67
2021/07/09 04:15:42;;;;;;;11.13;7.50;;;;;;;19.39;94.46;95566.03;5107500;27;20039;-67
2021/07/09 04:18:09;;;;;;;9.60;7.63;;;;;;;19.45;94.17;95570.25;5107664;27;20596;-67
2021/07/09 04:20:36;;;;;;;7.93;7.03;;;;;;;19.49;93.42;95576.56;5107299;27;20043;-67
2021/07/09 04:23:03;;;;;;;10.70;7.60;;;;;;;19.52;93.66;95567.31;5107565;27;20046;-67
2021/07/09 04:25:30;;;;;;;7.60;6.88;;;;;;;19.60;93.32;95572.84;5108312;27;20463;-67
2021/07/09 04:27:57;;;;;;;9.70;7.03;;;;;;;19.63;93.12;95571.53;5106179;28;20058;-67
2021/07/09 04:30:24;;;;;;;10.25;6.93;;;;;;;19.57;93.69;95568.09;5106018;28;20425;-67
2021/07/09 04:32:51;;;;;;;12.18;7.60;;;;;;;19.66;93.64;95577.06;5108874;27;20051;-67
2021/07/09 04:35:18;;;;;;;9.77;7.97;;;;;;;19.70;93.26;95563.28;5106703;27;20047;-67
2021/07/09 04:37:44;;;;;;;7.75;6.95;;;;;;;19.82;93.33;95571.72;5106798;28;20401;-67
2021/07/09 04:40:12;;;;;;;8.38;7.47;;;;;;;19.77;93.04;95561.16;5105027;28;20040;-67
2021/07/09 04:42:39;;;;;;;12.20;8.02;;;;;;;19.85;93.12;95568.53;5105722;28;20039;-67
2021/07/09 04:45:06;;;;;;;11.75;8.27;;;;;;;19.92;93.44;95563.75;5105700;27;20047;-67
2021/07/09 04:47:33;;;;;;;12.90;8.82;;;;;;;20.00;94.13;95571.09;5104942;27;20040;-67
2021/07/09 04:50:00;;;;;;;12.00;8.38;;;;;;;20.12;93.66;95564.72;5106043;28;20038;-67
2021/07/09 04:52:27;;;;;;;10.48;9.27;;;;;;;20.20;93.45;95569.41;5106524;27;20131;-68
2021/07/09 04:54:54;;;;;;;15.52;8.68;;;;;;;20.29;93.14;95567.75;5104501;28;20059;-68
2021/07/09 04:57:21;;;;;;;12.38;9.77;;;;;;;20.35;92.78;95571.19;5106731;28;20039;-68
2021/07/09 04:59:48;;;;;;;14.55;9.02;;;;;;;20.41;93.20;95565.56;5102692;28;20044;-67
2021/07/09 05:02:15;;;;;;;10.18;8.45;;;;;;;20.52;92.87;95560.22;5106310;28;20032;-67
2021/07/09 05:04:41;;;;;;;10.80;8.10;;;;;;;20.57;91.91;95557.53;5106513;28;20417;-67
2021/07/09 05:07:08;;;;;;;8.73;7.82;;;;;;;20.66;92.15;95558.56;5106243;28;20035;-67
2021/07/09 05:09:35;;;;;;;11.15;9.88;;;;;;;20.76;92.05;95555.84;5105427;28;20039;-67
2021/07/09 05:12:02;;;;;;;8.20;7.35;;;;;;;20.85;90.24;95553.38;5105424;28;20036;-67
2021/07/09 05:14:29;;;;;;;9.45;8.00;;;;;;;20.89;90.64;95558.91;5105101;28;20046;-67
2021/07/09 05:16:56;;;;;;;10.80;7.47;;;;;;;20.96;90.83;95559.38;5105303;28;20047;-67
2021/07/09 05:19:22;;;;;;;12.10;7.95;;;;;;;21.01;90.10;95556.66;5105484;28;20055;-67
2021/07/09 05:21:50;;;;;;;10.07;7.82;;;;;;;21.10;88.91;95549.69;5105113;28;20788;-67
2021/07/09 05:24:25;;;;;;;15.13;9.15;;;;;;;21.10;89.57;95554.97;5105987;28;20550;-67
2021/07/09 05:26:53;;;;;;;12.73;10.75;;;;;;;21.22;87.99;95545.88;5107864;27;20139;-67
2021/07/09 05:29:20;;;;;;;15.90;11.52;;;;;;;21.24;88.40;95543.75;5104547;28;20066;-68
2021/07/09 05:39:15;;;;;;;21.05;10.52;;;;;;;21.46;87.53;95541.38;5107816;27;20146;-68
2021/07/09 05:41:43;;;;;;;14.27;10.77;;;;;;;21.51;86.63;95532.59;5121262;27;20048;-68
2021/07/09 05:44:11;;;;;;;13.68;9.52;;;;;;;21.58;86.10;95538.34;5120473;27;20425;-68
2021/07/09 05:46:38;;;;;;;10.35;9.15;;;;;;;21.74;85.47;95544.25;5123458;27;20045;-68
2021/07/09 05:49:05;;;;;;;11.45;9.00;;;;;;;21.76;85.72;95534.94;5105552;27;20063;-69
2021/07/09 05:51:32;;;;;;;12.00;8.90;;;;;;;21.84;86.08;95530.06;5123037;27;20047;-68
2021/07/09 05:53:59;;;;;;;13.10;8.90;;;;;;;21.93;84.81;95531.81;5101853;27;20048;-66
2021/07/09 05:56:26;;;;;;;13.68;9.73;;;;;;;22.09;85.21;95536.91;5127730;27;20488;-65
2021/07/09 05:58:53;;;;;;;13.38;10.52;;;;;;;22.08;83.93;95532.69;5125453;27;20505;-65
2021/07/09 06:01:19;;;;;;;13.32;9.93;;;;;;;22.10;83.50;95522.56;5124774;27;20115;-66
2021/07/09 06:03:50;;;;;;;15.23;11.85;;;;;;;22.19;85.04;95541.28;5124597;27;20047;-66
2021/07/09 06:06:17;;;;;;;10.23;9.13;;;;;;;22.24;84.23;95534.03;5089394;27;20053;-66
2021/07/09 06:08:44;;;;;;;16.52;10.82;;;;;;;22.42;84.10;95534.34;5122128;27;20432;-66
2021/07/09 06:11:11;;;;;;;12.88;10.77;;;;;;;22.51;83.07;95527.31;5124996;27;20054;-66
2021/07/09 06:13:37;;;;;;;14.27;12.60;;;;;;;22.57;82.39;95523.50;5122418;27;20077;-67
2021/07/09 06:16:04;;;;;;;16.38;12.52;;;;;;;22.59;82.12;95523.97;5125208;27;20047;-66
2021/07/09 06:18:32;;;;;;;14.55;11.18;;;;;;;22.75;81.83;95537.03;5125294;27;20059;-67
2021/07/09 06:21:19;;;;;;;14.85;12.80;;;;;;;22.84;82.43;95524.66;5125958;27;20046;-69
2021/07/09 06:23:46;;;;;;;18.42;11.45;;;;;;;22.99;81.13;95537.66;5121718;27;20051;-67
2021/07/09 06:26:13;;;;;;;13.68;11.07;;;;;;;22.99;80.98;95527.03;5127073;27;20043;-67
2021/07/09 06:28:39;;;;;;;14.90;11.88;;;;;;;23.04;81.69;95529.63;5124798;27;20130;-67
2021/07/09 06:31:06;;;;;;;13.80;11.07;;;;;;;23.15;79.65;95534.75;5125652;27;20055;-67
2021/07/09 06:33:33;;;;;;;15.73;12.15;;;;;;;23.31;79.78;95533.41;5122882;27;20444;-67
2021/07/09 06:36:00;;;;;;;14.85;11.65;;;;;;;23.45;79.47;95523.56;5124553;27;20046;-67
2021/07/09 06:38:27;;;;;;;11.27;9.77;;;;;;;23.50;77.88;95524.53;5099221;27;20057;-66
2021/07/09 06:40:53;;;;;;;12.65;10.25;;;;;;;23.56;76.82;95526.03;5124297;27;20118;-67
2021/07/09 06:43:20;;;;;;;10.98;9.45;;;;;;;23.64;76.46;95520.00;5124073;27;20148;-68
2021/07/09 06:45:47;;;;;;;16.80;12.27;;;;;;;23.68;77.42;95531.63;5123372;27;20459;-67
2021/07/09 06:48:14;;;;;;;19.58;15.98;;;;;;;23.78;77.08;95539.38;5125628;27;20406;-67
2021/07/09 06:50:41;;;;;;;20.55;16.23;;;;;;;23.78;77.87;95526.09;5092640;27;20043;-67
2021/07/09 06:53:08;;;;;;;20.25;13.45;;;;;;;23.99;77.97;95536.34;5106939;27;20043;-67
2021/07/09 06:55:36;;;;;;;21.33;14.70;;;;;;;23.95;75.15;95528.16;5109510;27;20497;-67
2021/07/09 06:58:03;;;;;;;17.10;13.88;;;;;;;24.02;74.49;95514.44;5111011;27;20054;-67
2021/07/09 07:00:30;;;;;;;23.13;14.90;;;;;;;24.14;74.14;95528.00;5110751;27;20045;-67
2021/07/09 07:02:57;;;;;;;13.57;11.85;;;;;;;24.27;72.75;95520.28;5111914;27;20048;-67
2021/07/09 07:05:28;;;;;;;15.20;12.30;;;;;;;24.32;72.54;95528.94;5108864;27;20229;-67
2021/07/09 07:07:54;;;;;;;12.82;10.25;;;;;;;24.52;72.97;95517.03;5110603;27;20040;-67
2021/07/09 07:10:23;;;;;;;12.35;10.68;;;;;;;24.69;71.18;95512.94;5108958;27;20549;-67
2021/07/09 07:12:50;;;;;;;17.88;12.57;;;;;;;24.89;72.20;95515.09;5093457;27;20039;-68
2021/07/09 07:15:17;;;;;;;14.63;11.15;;;;;;;24.94;69.41;95522.19;5110523;27;20052;-67
2021/07/09 07:17:44;;;;;;;12.43;9.30;;;;;;;25.11;69.23;95521.47;5108410;27;20042;-68
2021/07/09 07:20:11;;;;;;;13.57;8.60;;;;;;;25.30;69.69;95508.72;5094335;27;20047;-67
2021/07/09 07:22:38;;;;;;;19.38;11.82;;;;;;;25.25;67.46;95511.53;5106279;27;20528;-69
2021/07/09 07:25:05;;;;;;;14.52;12.05;;;;;;;25.31;69.73;95507.63;5107998;27;20572;-66
2021/07/09 07:27:32;;;;;;;11.93;9.35;;;;;;;25.30;66.92;95506.06;5110440;27;20050;-67
2021/07/09 07:29:59;;;;;;;13.02;9.32;;;;;;;25.52;66.96;95499.84;5093876;28;20073;-67
2021/07/09 07:32:27;;;;;;;8.65;7.68;;;;;;;25.44;66.07;95502.50;5108297;27;20436;-67
2021/07/09 07:34:54;;;;;;;11.60;7.80;;;;;;;25.59;67.29;95504.75;5108692;27;20062;-68
2021/07/09 07:37:21;;;;;;;9.00;7.85;;;;;;;25.60;64.82;95506.28;5107029;27;20093;-67
2021/07/09 07:39:48;;;;;;;14.85;7.78;;;;;;;25.83;66.47;95514.19;5101023;27;20603;-68
2021/07/09 07:42:16;;;;;;;7.57;6.65;;;;;;;26.02;65.50;95512.06;5106631;27;20055;-67
2021/07/09 07:44:43;;;;;;;7.88;6.30;;;;;;;26.08;63.66;95510.78;5107152;27;20055;-68
2021/07/09 07:47:09;;;;;;;29.55;26.55;;;;;;;26.12;65.00;95511.72;5090388;28;20047;-68
2021/07/09 07:49:36;;;;;;;14.00;10.48;;;;;;;26.28;66.09;95505.94;5107100;27;20124;-68
2021/07/09 07:52:03;;;;;;;9.02;6.88;;;;;;;26.43;64.78;95502.75;5108005;27;20416;-67
2021/07/09 07:54:30;;;;;;;10.70;6.53;;;;;;;26.60;63.53;95499.31;5107008;27;20512;-68
2021/07/09 07:56:57;;;;;;;6.10;5.50;;;;;;;26.65;61.79;95506.38;5088765;28;20104;-67
2021/07/09 07:59:29;;;;;;;9.57;5.65;;;;;;;26.71;60.14;95499.78;5089742;28;20047;-67
2021/07/09 08:01:56;;;;;;;9.20;6.60;;;;;;;26.73;60.66;95489.56;5106100;27;20114;-68
2021/07/09 08:04:23;;;;;;;11.65;5.70;;;;;;;26.66;60.34;95503.41;5106611;27;20060;-68
2021/07/09 08:06:50;;;;;;;9.85;5.95;;;;;;;26.89;61.59;95495.97;5105880;28;20432;-68
2021/07/09 08:09:17;;;;;;;6.20;5.03;;;;;;;27.08;59.84;95492.94;5106074;27;20055;-67
2021/07/09 08:11:43;;;;;;;5.88;5.38;;;;;;;27.26;59.00;95492.84;5088635;27;20043;-67
2021/07/09 08:14:10;;;;;;;8.38;5.32;;;;;;;27.29;54.98;95491.44;5106292;28;20055;-68
2021/07/09 08:16:37;;;;;;;5.82;5.22;;;;;;;27.37;56.43;95493.28;5106365;27;20058;-68
2021/07/09 08:19:04;;;;;;;9.68;5.85;;;;;;;27.56;59.45;95482.97;5105882;28;20109;-67
2021/07/09 08:21:31;;;;;;;6.90;5.72;;;;;;;27.73;56.48;95475.94;5096718;27;20048;-68
2021/07/09 08:23:57;;;;;;;8.10;5.55;;;;;;;27.65;56.59;95489.03;5095675;27;20056;-67
2021/07/09 08:26:26;;;;;;;7.13;4.60;;;;;;;27.92;56.27;95487.00;5105201;28;20488;-67
2021/07/09 08:28:53;;;;;;;5.45;4.75;;;;;;;27.81;53.31;95473.19;5104517;28;20042;-67
2021/07/09 08:31:20;;;;;;;6.93;4.90;;;;;;;27.91;50.82;95474.75;5089013;28;20044;-67
2021/07/09 08:33:47;;;;;;;6.20;4.57;;;;;;;28.02;53.70;95470.56;5109004;27;20043;-67
2021/07/09 08:36:18;;;;;;;9.90;5.47;;;;;;;28.16;53.74;95485.56;5089888;28;20420;-67
2021/07/09 08:38:45;;;;;;;5.80;5.20;;;;;;;28.37;53.39;95480.97;5105401;28;20548;-67
2021/07/09 08:41:13;;;;;;;6.65;5.35;;;;;;;28.60;53.31;95483.31;5110240;27;20485;-68
2021/07/09 08:43:40;;;;;;;6.03;5.15;;;;;;;28.31;50.16;95476.94;5106892;27;20040;-67
2021/07/09 08:46:07;;;;;;;8.43;5.82;;;;;;;28.14;53.82;95466.38;5107709;27;20641;-67
2021/07/09 08:48:40;;;;;;;7.47;5.35;;;;;;;28.28;53.05;95466.88;5106582;28;20027;-67
2021/07/09 08:51:09;;;;;;;10.70;6.00;;;;;;;28.40;54.27;95464.25;5107052;28;20056;-67
2021/07/09 08:53:37;;;;;;;6.68;5.10;;;;;;;28.81;54.11;95461.03;5105578;28;20039;-67
2021/07/09 08:56:05;;;;;;;9.35;6.80;;;;;;;29.04;52.68;95467.53;5106812;28;20070;-67
2021/07/09 08:58:32;;;;;;;7.43;5.30;;;;;;;28.81;51.08;95471.75;5106564;28;20035;-67
2021/07/09 09:00:59;;;;;;;7.50;5.78;;;;;;;28.96;52.50;95474.56;5105134;28;20043;-67
2021/07/09 09:03:27;;;;;;;7.10;4.07;;;;;;;29.31;50.78;95473.41;5106926;28;20833;-67
2021/07/09 09:06:00;;;;;;;6.30;4.30;;;;;;;29.53;48.77;95470.28;5106623;28;20035;-67
2021/07/09 09:08:30;;;;;;;8.35;4.10;;;;;;;29.28;48.63;95468.69;5106798;28;20063;-67
2021/07/09 09:10:58;;;;;;;6.60;4.68;;;;;;;29.22;49.33;95473.50;5102382;27;20051;-67
2021/07/09 09:13:27;;;;;;;6.18;5.05;;;;;;;28.90;49.24;95469.75;5104114;28;20050;-67
2021/07/09 09:16:05;;;;;;;4.53;4.13;;;;;;;28.77;48.91;95461.72;5106660;28;20509;-67
2021/07/09 09:18:35;;;;;;;6.22;5.00;;;;;;;28.85;53.44;95457.38;5104280;27;20039;-67
2021/07/09 09:21:23;;;;;;;7.30;5.00;;;;;;;29.21;51.03;95463.91;5098426;27;20059;-67
2021/07/09 09:23:50;;;;;;;7.90;5.85;;;;;;;29.45;51.55;95457.75;5107146;27;20047;-67
2021/07/09 09:26:53;;;;;;;13.07;5.50;;;;;;;29.41;50.85;95462.22;5100345;27;20047;-68
2021/07/09 09:29:26;;;;;;;7.55;5.38;;;;;;;29.77;50.70;95457.19;5102846;28;20481;-68
2021/07/09 09:31:59;;;;;;;6.45;5.53;;;;;;;29.86;48.17;95455.91;5104436;28;20656;-68
2021/07/09 09:34:46;;;;;;;5.40;4.65;;;;;;;30.13;47.71;95456.28;5101930;28;20036;-68
2021/07/09 09:37:18;;;;;;;4.97;4.47;;;;;;;30.01;47.08;95457.09;5101613;27;20515;-68
2021/07/09 09:39:47;;;;;;;6.68;4.30;;;;;;;30.34;46.50;95463.41;5103039;28;20409;-69
2021/07/09 09:42:23;;;;;;;5.18;4.50;;;;;;;30.16;47.74;95452.94;5101345;28;20500;-67
2021/07/09 09:45:04;;;;;;;4.35;3.95;;;;;;;30.28;47.87;95442.13;5105515;28;20038;-67
2021/07/09 09:47:33;;;;;;;4.82;3.97;;;;;;;30.33;44.98;95451.06;5104151;28;20716;-67
2021/07/09 09:50:04;;;;;;;7.43;3.88;;;;;;;30.67;46.79;95455.84;5102726;28;20032;-67
2021/07/09 09:52:39;;;;;;;5.78;4.40;;;;;;;30.74;46.92;95449.06;5104381;28;20052;-67
2021/07/09 09:55:09;;;;;;;6.53;4.03;;;;;;;30.80;41.79;95455.78;5103012;28;20878;-68
2021/07/09 09:57:38;;;;;;;4.35;3.95;;;;;;;31.00;42.45;95449.38;5105635;28;20047;-68
2021/07/09 10:00:07;;;;;;;5.25;4.00;;;;;;;31.35;43.63;95451.38;5103407;28;20043;-70
2021/07/09 10:02:36;;;;;;;5.13;3.30;;;;;;;31.71;42.83;95449.50;5088249;28;20120;-68
2021/07/09 10:05:04;;;;;;;6.65;4.40;;;;;;;31.79;42.93;95443.09;5105510;28;20437;-68
2021/07/09 10:07:36;;;;;;;4.13;3.67;;;;;;;31.88;41.05;95444.84;5105782;28;20485;-68
2021/07/09 10:10:04;;;;;;;7.40;3.53;;;;;;;31.58;42.80;95437.25;5085080;28;20043;-67
2021/07/09 10:12:32;;;;;;;4.10;3.53;;;;;;;31.25;42.63;95435.75;5106336;28;20480;-67
2021/07/09 10:15:00;;;;;;;5.60;3.10;;;;;;;31.23;42.43;95444.16;5097055;28;20043;-67
2021/07/09 10:17:27;;;;;;;3.50;2.90;;;;;;;31.29;40.63;95436.59;5102506;28;20093;-67
2021/07/09 10:19:55;;;;;;;4.65;3.10;;;;;;;31.60;39.17;95430.41;5107946;28;20082;-67
2021/07/09 10:22:40;;;;;;;6.70;3.63;;;;;;;30.95;41.93;95422.75;5107322;28;20485;-67
2021/07/09 10:25:08;;;;;;;4.13;3.70;;;;;;;31.05;42.41;95416.84;5108747;27;20416;-67
2021/07/09 10:27:37;;;;;;;7.45;4.13;;;;;;;31.73;41.92;95417.59;5110701;27;20436;-67
2021/07/09 10:30:05;;;;;;;5.20;3.38;;;;;;;32.04;38.68;95415.94;5109242;27;20043;-67
2021/07/09 10:32:44;;;;;;;7.20;3.70;;;;;;;31.72;40.10;95399.88;5109404;28;20046;-68
2021/07/09 10:35:32;;;;;;;6.40;4.30;;;;;;;31.60;40.95;95397.31;5109543;28;20165;-67
2021/07/09 10:38:17;;;;;;;7.50;3.72;;;;;;;31.78;42.19;95395.78;5108537;28;20058;-67
2021/07/09 10:40:43;;;;;;;5.63;4.05;;;;;;;32.02;39.23;95396.63;5106835;28;20074;-67
2021/07/09 10:43:10;;;;;;;6.05;3.83;;;;;;;32.23;39.02;95390.13;5108762;28;20425;-67
2021/07/09 10:45:39;;;;;;;4.00;3.58;;;;;;;31.79;39.40;95394.63;5109462;27;20040;-68
2021/07/09 10:48:08;;;;;;;4.75;3.63;;;;;;;32.07;39.30;95396.38;5108899;28;20051;-67
2021/07/09 10:50:53;;;;;;;4.53;3.40;;;;;;;31.69;40.62;95399.81;5109650;27;20043;-67
2021/07/09 10:53:23;;;;;;;4.47;3.67;;;;;;;31.92;39.72;95397.19;5109313;28;20125;-67
2021/07/09 10:55:56;;;;;;;4.45;3.47;;;;;;;31.95;38.82;95391.09;5108376;28;20036;-67
2021/07/09 10:58:28;;;;;;;4.00;3.70;;;;;;;32.29;36.60;95386.00;5109118;27;20043;-67
2021/07/09 11:01:05;;;;;;;5.72;3.47;;;;;;;32.49;39.27;95386.75;5108572;28;20039;-68
2021/07/09 11:03:56;;;;;;;6.20;3.83;;;;;;;32.63;36.76;95391.59;5110203;27;20047;-67
2021/07/09 11:06:31;;;;;;;5.25;3.63;;;;;;;32.64;36.28;95382.38;5098833;28;20436;-67
2021/07/09 11:09:03;;;;;;;4.10;3.72;;;;;;;32.98;37.62;95379.84;5108439;28;20051;-67
2021/07/09 11:11:37;;;;;;;4.47;3.22;;;;;;;32.95;35.60;95374.03;5107893;28;20044;-66
2021/07/09 11:14:12;;;;;;;4.35;3.40;;;;;;;32.74;37.03;95376.41;5089366;28;20043;-67
2021/07/09 11:16:49;;;;;;;5.80;3.55;;;;;;;32.98;36.09;95372.53;5110681;27;20062;-67
2021/07/09 11:19:29;;;;;;;4.78;3.70;;;;;;;33.04;35.10;95356.81;5107585;28;20489;-67
2021/07/09 11:22:04;;;;;;;16.85;3.72;;;;;;;33.00;35.91;95366.78;5108292;28;20050;-67
2021/07/09 11:24:55;;;;;;;5.28;3.47;;;;;;;33.02;35.61;95364.50;5108218;28;20044;-67
2021/07/09 11:27:27;;;;;;;3.33;3.03;;;;;;;33.42;36.99;95349.66;5107486;27;20063;-66
2021/07/09 11:29:59;;;;;;;4.63;3.50;;;;;;;33.60;34.18;95345.28;5108401;28;20036;-67
2021/07/09 11:32:32;;;;;;;4.53;3.40;;;;;;;33.46;36.23;95351.25;5089341;28;20043;-67
2021/07/09 11:34:59;;;;;;;3.53;3.17;;;;;;;33.71;36.04;95351.59;5107640;27;20447;-67
2021/07/09 11:37:28;;;;;;;4.45;2.88;;;;;;;33.89;34.62;95351.81;5107729;28;20043;-67
2021/07/09 11:39:59;;;;;;;3.58;3.28;;;;;;;34.38;34.31;95350.00;5105683;28;20101;-66
2021/07/09 11:42:31;;;;;;;3.95;3.65;;;;;;;34.36;34.76;95346.91;5108050;28;20051;-67
2021/07/09 11:45:05;;;;;;;5.95;3.55;;;;;;;34.27;34.50;95338.34;5107406;28;20046;-67